Nelson, New Hampshire
Current Conditions -  °F | °C
As of 9:35 PM on Wednesday 17 Dec 2014 (Local Time) from KEEN Reporting Station
Broken Clouds Broken Clouds  
Wind Chill: 34°   Ceiling: 6000
Heat Index: 34°   Visibility: 9mi
Dew Point: 34°   Wind: 3mph
Humidity: 100%   Direction: 240°WSW
Pressure: 29.76"   Gusts: NA
Location:  42.9982°N, 72.1464°W
Report Text: KEEN 180235Z AUTO 24003KT 9SM BKN060 01/01 A2976 RMK AO1
Loading
Personal Weather Stations






























Interactive Weather Map New forecast layout! Learn more

10-Day Weather Forecast

Advertisements
Track Severe Weather on mobile